Terminal Aerodrome Forecast
Issued by NWS

Home | Current Version | Previous Version | Graphics & Text | Print | Product List | Glossary On
Versions: 1 2 3 4 5 6 7 8 9 10 11 12 13 14 15
000
FTUS43 KICT 260329 AAA
TAFRSL
TAF AMD
KRSL 260329Z 2603/2624 02019G26KT P6SM BKN025 OVC050
     FM261200 36017G25KT P6SM BKN250
     FM261800 01012KT P6SM SCT250=

USA.gov is the U.S. government's official web portal to all federal, state and local government web resources and services.